createdAt,value
2023-03-06T00:01:31.294Z,12.35
2023-03-06T00:03:57.748Z,12.73
2023-03-06T00:06:24.180Z,11.65
2023-03-06T00:08:50.560Z,12.95
2023-03-06T00:11:17.389Z,12.70
2023-03-06T00:13:43.897Z,11.90
2023-03-06T00:16:10.310Z,12.15
2023-03-06T00:18:36.890Z,13.43
2023-03-06T00:21:07.424Z,12.85
2023-03-06T00:23:33.874Z,13.15
2023-03-06T00:26:00.325Z,12.73
2023-03-06T00:28:27.130Z,13.13
2023-03-06T00:30:53.520Z,14.30
2023-03-06T00:33:19.965Z,13.02
2023-03-06T00:35:46.417Z,14.57
2023-03-06T00:38:14.522Z,12.95
2023-03-06T00:40:40.957Z,12.73
2023-03-06T00:43:07.385Z,13.25
2023-03-06T00:45:35.090Z,13.95
2023-03-06T00:48:01.548Z,14.38
2023-03-06T00:50:28.161Z,12.85
2023-03-06T00:52:54.556Z,13.73
2023-03-06T00:55:20.997Z,12.20
2023-03-06T00:57:48.229Z,12.18
2023-03-06T01:00:15.118Z,11.90
2023-03-06T01:02:41.784Z,12.50
2023-03-06T01:05:09.323Z,12.45
2023-03-06T01:07:37.187Z,13.75
2023-03-06T01:10:08.495Z,12.68
2023-03-06T01:15:01.646Z,13.27
2023-03-06T01:17:28.522Z,12.52
2023-03-06T01:19:54.937Z,12.98
2023-03-06T01:22:21.400Z,12.60
2023-03-06T01:24:47.819Z,12.18
2023-03-06T01:27:14.472Z,13.20
2023-03-06T01:29:43.384Z,13.07
2023-03-06T01:32:10.044Z,12.73
2023-03-06T01:34:36.528Z,11.90
2023-03-06T01:37:03.043Z,12.27
2023-03-06T01:39:31.371Z,12.40
2023-03-06T01:41:57.851Z,12.32
2023-03-06T01:44:24.333Z,13.50
2023-03-06T01:46:50.889Z,13.30
2023-03-06T01:49:41.507Z,14.00
2023-03-06T01:52:15.494Z,13.60
2023-03-06T01:54:53.411Z,14.73
2023-03-06T01:57:28.835Z,14.55
2023-03-06T02:00:09.317Z,13.85
2023-03-06T02:02:49.817Z,13.13
2023-03-06T02:05:16.388Z,15.80
2023-03-06T02:07:44.187Z,15.52
2023-03-06T02:10:14.804Z,14.32
2023-03-06T02:12:43.672Z,15.07
2023-03-06T02:15:12.463Z,15.73
2023-03-06T02:17:39.489Z,14.85
2023-03-06T02:20:30.504Z,13.65
2023-03-06T02:23:18.111Z,14.02
2023-03-06T02:25:48.257Z,15.00
2023-03-06T02:28:18.268Z,14.52
2023-03-06T02:30:47.948Z,15.27
2023-03-06T02:33:20.138Z,13.60
2023-03-06T02:35:50.999Z,12.75
2023-03-06T02:38:21.020Z,14.45
2023-03-06T02:40:51.587Z,14.70
2023-03-06T02:43:29.037Z,15.48
2023-03-06T02:45:56.643Z,15.52
2023-03-06T02:48:23.094Z,14.73
2023-03-06T02:50:49.900Z,16.10
2023-03-06T02:53:19.774Z,15.93
2023-03-06T02:55:46.983Z,15.23
2023-03-06T02:58:16.003Z,16.08
2023-03-06T03:00:43.057Z,16.40
2023-03-06T03:03:10.118Z,15.82
2023-03-06T03:05:36.621Z,15.82
2023-03-06T03:08:13.622Z,16.52
2023-03-06T03:10:40.073Z,15.68
2023-03-06T03:13:06.760Z,15.27
2023-03-06T03:15:34.466Z,17.67
2023-03-06T03:18:00.922Z,16.83
2023-03-06T03:20:27.356Z,16.35
2023-03-06T03:22:55.566Z,17.17
2023-03-06T03:25:24.824Z,16.17
2023-03-06T03:27:54.197Z,16.48
2023-03-06T03:30:20.960Z,16.63
2023-03-06T03:32:47.768Z,18.65
2023-03-06T03:35:14.238Z,17.65
2023-03-06T03:37:41.637Z,17.58
2023-03-06T03:40:10.184Z,15.88
2023-03-06T03:42:36.880Z,18.27
2023-03-06T03:45:05.192Z,18.23
2023-03-06T03:47:31.812Z,19.40
2023-03-06T03:49:58.217Z,18.80
2023-03-06T03:52:25.094Z,17.98
2023-03-06T03:54:51.792Z,17.85
2023-03-06T03:57:18.287Z,16.73
2023-03-06T03:59:50.251Z,16.80
2023-03-06T04:02:36.613Z,17.63
2023-03-06T04:05:16.826Z,18.55
2023-03-06T04:07:43.505Z,16.25
2023-03-06T04:10:12.399Z,18.48
2023-03-06T04:12:39.675Z,17.15
2023-03-06T04:15:07.677Z,17.35
2023-03-06T04:17:35.282Z,17.20
2023-03-06T04:20:06.826Z,16.45
2023-03-06T04:22:34.104Z,17.27
2023-03-06T04:25:00.633Z,18.25
2023-03-06T04:27:27.494Z,18.15
2023-03-06T04:29:56.266Z,17.70
2023-03-06T04:32:23.797Z,17.25
2023-03-06T04:34:50.667Z,17.70
2023-03-06T04:37:20.652Z,17.45
2023-03-06T04:39:47.989Z,19.27
2023-03-06T04:42:14.751Z,20.70
2023-03-06T04:44:41.202Z,21.75
2023-03-06T04:47:07.959Z,19.08
2023-03-06T04:49:34.649Z,22.30
2023-03-06T04:52:01.077Z,20.55
2023-03-06T04:54:27.488Z,21.10
2023-03-06T04:56:53.878Z,19.65
2023-03-06T04:59:20.388Z,18.80
2023-03-06T05:01:46.926Z,19.17
2023-03-06T05:04:13.389Z,18.13
2023-03-06T05:06:39.892Z,17.75
2023-03-06T05:09:06.330Z,17.52
2023-03-06T05:11:32.716Z,18.27
2023-03-06T05:13:59.171Z,16.70
2023-03-06T05:16:25.612Z,16.92
2023-03-06T05:18:52.136Z,16.38
2023-03-06T05:21:18.617Z,17.98
2023-03-06T05:23:45.111Z,17.08
2023-03-06T05:26:14.015Z,17.00
2023-03-06T05:28:41.094Z,16.90
2023-03-06T05:31:07.873Z,16.95
2023-03-06T05:33:36.080Z,16.95
2023-03-06T05:36:03.658Z,18.52
2023-03-06T05:38:30.141Z,15.63
2023-03-06T05:40:56.537Z,18.27
2023-03-06T05:43:22.944Z,17.73
2023-03-06T05:45:50.479Z,19.65
2023-03-06T05:48:17.074Z,19.27
2023-03-06T05:50:43.522Z,18.08
2023-03-06T05:53:09.981Z,19.08
2023-03-06T05:55:36.402Z,17.77
2023-03-06T05:58:02.862Z,17.30
2023-03-06T06:00:29.330Z,21.63
2023-03-06T06:02:55.722Z,21.05
2023-03-06T06:05:22.131Z,17.75
2023-03-06T06:07:48.518Z,17.65
2023-03-06T06:10:15.232Z,18.92
2023-03-06T06:12:41.660Z,19.98
2023-03-06T06:15:08.373Z,19.13
2023-03-06T06:17:34.833Z,20.85
2023-03-06T06:20:01.353Z,19.35
2023-03-06T06:22:27.753Z,18.67
2023-03-06T06:24:54.185Z,18.23
2023-03-06T06:27:20.581Z,18.17
2023-03-06T06:29:50.430Z,18.20
2023-03-06T06:32:17.032Z,18.25
2023-03-06T06:34:43.452Z,17.02
2023-03-06T06:37:10.059Z,16.25
2023-03-06T06:39:36.650Z,17.95
2023-03-06T06:42:27.803Z,16.73
2023-03-06T06:44:50.211Z,16.95
2023-03-06T06:47:25.438Z,16.00
2023-03-06T06:49:54.086Z,16.73
2023-03-06T06:52:20.962Z,17.02
2023-03-06T06:54:47.433Z,16.42
2023-03-06T06:57:14.530Z,15.98
2023-03-06T06:59:41.156Z,16.23
2023-03-06T07:02:07.852Z,17.33
2023-03-06T07:04:34.309Z,21.05
2023-03-06T07:07:01.140Z,21.30
2023-03-06T07:09:27.747Z,20.85
2023-03-06T07:11:54.337Z,20.75
2023-03-06T07:14:20.739Z,20.60
2023-03-06T07:16:47.144Z,18.30
2023-03-06T07:19:13.584Z,16.05
2023-03-06T07:21:40.359Z,16.40
2023-03-06T07:24:06.927Z,17.77
2023-03-06T07:26:34.753Z,18.80
2023-03-06T07:29:02.056Z,16.27
2023-03-06T07:31:28.629Z,15.30
2023-03-06T07:33:55.490Z,15.68
2023-03-06T07:36:23.731Z,15.70
2023-03-06T07:38:50.345Z,16.48
2023-03-06T07:41:19.804Z,15.15
2023-03-06T07:43:48.373Z,15.88
2023-03-06T07:46:14.823Z,15.52
2023-03-06T07:48:42.641Z,15.82
2023-03-06T07:51:14.772Z,16.80
2023-03-06T07:53:41.437Z,16.85
2023-03-06T07:56:09.052Z,16.13
2023-03-06T07:58:37.716Z,13.27
2023-03-06T08:01:06.442Z,14.55
2023-03-06T08:03:33.248Z,14.48
2023-03-06T08:06:10.184Z,13.30
2023-03-06T08:08:39.440Z,16.05
2023-03-06T08:11:06.899Z,12.23
2023-03-06T08:13:34.078Z,11.88
2023-03-06T08:16:01.350Z,13.70
2023-03-06T08:18:28.202Z,11.13
2023-03-06T08:21:05.164Z,11.90
2023-03-06T08:23:32.831Z,11.35
2023-03-06T08:26:01.161Z,12.32
2023-03-06T08:28:28.566Z,11.95
2023-03-06T08:30:55.950Z,11.93
2023-03-06T08:33:22.711Z,10.70
2023-03-06T08:35:49.157Z,11.48
2023-03-06T08:38:15.666Z,11.57
2023-03-06T08:40:42.157Z,10.85
2023-03-06T08:43:11.306Z,11.38
2023-03-06T08:45:39.656Z,11.70
2023-03-06T08:48:06.163Z,10.23
2023-03-06T08:50:32.704Z,10.73
2023-03-06T08:52:59.202Z,10.32
2023-03-06T08:55:25.757Z,10.52
2023-03-06T08:57:52.127Z,10.50
2023-03-06T09:00:19.042Z,10.23
2023-03-06T09:02:45.468Z,10.35
2023-03-06T09:05:11.974Z,9.80
2023-03-06T09:07:38.409Z,10.10
2023-03-06T09:10:05.165Z,10.07
2023-03-06T09:12:40.425Z,10.50
2023-03-06T09:15:14.418Z,8.70
2023-03-06T09:17:41.032Z,10.20
2023-03-06T09:20:10.561Z,9.18
2023-03-06T09:22:37.841Z,9.55
2023-03-06T09:25:05.495Z,9.73
2023-03-06T09:27:31.928Z,8.50
2023-03-06T09:29:58.315Z,10.27
2023-03-06T09:32:24.811Z,10.10
2023-03-06T09:34:51.275Z,9.18
2023-03-06T09:37:17.996Z,9.02
2023-03-06T09:39:44.763Z,9.98
2023-03-06T09:42:18.471Z,9.68
2023-03-06T09:44:50.341Z,8.73
2023-03-06T09:47:47.388Z,8.98
2023-03-06T09:50:23.801Z,9.10
2023-03-06T09:53:15.492Z,9.60
2023-03-06T09:58:25.627Z,9.07
2023-03-06T10:03:54.622Z,8.50
2023-03-06T10:06:26.234Z,7.93
2023-03-06T10:09:05.497Z,8.55
2023-03-06T10:11:40.940Z,7.45
2023-03-06T10:14:32.286Z,7.95
2023-03-06T10:16:59.042Z,7.88
2023-03-06T10:19:36.530Z,7.80
2023-03-06T10:22:34.966Z,7.47
2023-03-06T10:25:15.479Z,7.43
2023-03-06T10:27:50.676Z,6.55
2023-03-06T10:30:37.957Z,7.20
2023-03-06T10:33:30.731Z,7.55
2023-03-06T10:35:58.478Z,7.63
2023-03-06T10:38:37.647Z,7.35
2023-03-06T10:41:12.767Z,7.88
2023-03-06T10:43:41.752Z,8.63
2023-03-06T10:46:11.906Z,6.82
2023-03-06T10:48:41.990Z,8.27
2023-03-06T10:51:23.994Z,7.13
2023-03-06T10:54:02.000Z,7.07
2023-03-06T10:56:39.075Z,7.30
2023-03-06T10:59:22.972Z,8.50
2023-03-06T11:01:52.051Z,7.30
2023-03-06T11:04:28.531Z,7.53
2023-03-06T11:07:18.784Z,7.43
2023-03-06T11:09:58.849Z,7.60
2023-03-06T11:12:32.657Z,8.27
2023-03-06T11:15:14.211Z,8.50
2023-03-06T11:20:44.669Z,9.15
2023-03-06T11:23:38.614Z,9.02
2023-03-06T11:26:17.339Z,12.43
2023-03-06T11:28:48.558Z,12.40
2023-03-06T11:31:20.733Z,9.93
2023-03-06T11:34:04.242Z,9.48
2023-03-06T11:36:52.839Z,9.43
2023-03-06T11:39:34.257Z,9.07
2023-03-06T11:42:09.369Z,10.93
2023-03-06T11:45:04.108Z,9.57
2023-03-06T11:48:08.710Z,10.77
2023-03-06T11:50:39.740Z,9.32
2023-03-06T11:53:12.220Z,10.32
2023-03-06T11:56:20.199Z,10.55
2023-03-06T11:59:34.894Z,10.93
2023-03-06T12:02:11.289Z,11.75
2023-03-06T12:04:52.452Z,11.05
2023-03-06T12:07:44.993Z,11.60
2023-03-06T12:11:13.315Z,11.38
2023-03-06T12:14:01.014Z,12.68
2023-03-06T12:16:30.079Z,12.38
2023-03-06T12:19:19.434Z,11.80
2023-03-06T12:22:04.238Z,12.18
2023-03-06T12:24:33.625Z,12.75
2023-03-06T12:27:18.162Z,12.27
2023-03-06T12:29:53.717Z,11.80
2023-03-06T12:32:37.200Z,11.70
2023-03-06T12:35:27.829Z,12.43
2023-03-06T12:38:29.303Z,11.23
2023-03-06T12:41:14.295Z,11.93
2023-03-06T12:44:07.488Z,11.52
2023-03-06T12:46:39.597Z,10.82
2023-03-06T12:49:22.975Z,12.50
2023-03-06T12:51:58.322Z,10.50
2023-03-06T12:54:29.445Z,9.82
2023-03-06T12:56:57.590Z,10.40
2023-03-06T12:59:37.954Z,10.50
2023-03-06T13:02:29.857Z,9.38
2023-03-06T13:05:21.529Z,11.50
2023-03-06T13:10:23.221Z,9.57
2023-03-06T13:13:05.071Z,8.88
2023-03-06T13:15:41.819Z,8.07
2023-03-06T13:18:34.608Z,8.77
2023-03-06T13:21:01.177Z,9.05
2023-03-06T13:23:43.175Z,9.13
2023-03-06T13:26:09.604Z,8.77
2023-03-06T13:28:47.619Z,9.32
2023-03-06T13:31:27.827Z,8.75
2023-03-06T13:34:00.749Z,9.25
2023-03-06T13:36:39.996Z,8.50
2023-03-06T13:39:10.827Z,7.68
2023-03-06T13:41:43.361Z,8.57
2023-03-06T13:44:25.075Z,7.40
2023-03-06T13:46:59.479Z,7.38
2023-03-06T13:49:27.127Z,7.97
2023-03-06T13:51:53.719Z,7.70
2023-03-06T13:54:57.158Z,7.18
2023-03-06T13:57:54.697Z,7.63
2023-03-06T14:00:55.180Z,7.85
2023-03-06T14:03:59.045Z,8.23
2023-03-06T14:07:06.997Z,7.85
2023-03-06T14:09:37.311Z,7.60
2023-03-06T14:12:16.536Z,7.45
2023-03-06T14:14:48.428Z,7.72
2023-03-06T14:17:24.058Z,7.97
2023-03-06T14:19:51.204Z,7.60
2023-03-06T14:22:24.616Z,7.38
2023-03-06T14:25:02.937Z,7.93
2023-03-06T14:27:46.893Z,9.25
2023-03-06T14:30:16.619Z,8.30
2023-03-06T14:32:43.574Z,8.43
2023-03-06T14:35:39.323Z,8.02
2023-03-06T14:38:06.550Z,7.35
2023-03-06T14:40:42.488Z,8.52
2023-03-06T14:43:21.619Z,8.38
2023-03-06T14:45:59.640Z,8.10
2023-03-06T14:48:47.708Z,7.78
2023-03-06T14:51:22.920Z,7.90
2023-03-06T14:53:50.917Z,7.60
2023-03-06T14:56:21.943Z,8.05
2023-03-06T14:58:55.437Z,7.53
2023-03-06T15:01:36.668Z,8.85
2023-03-06T15:04:15.083Z,8.10
2023-03-06T15:06:45.105Z,8.77
2023-03-06T15:09:24.188Z,10.02
2023-03-06T15:12:02.189Z,18.35
2023-03-06T15:14:31.075Z,14.35
2023-03-06T15:17:17.542Z,10.95
2023-03-06T15:19:45.948Z,14.10
2023-03-06T15:22:34.111Z,12.55
2023-03-06T15:25:16.073Z,8.50
2023-03-06T15:27:55.013Z,11.60
2023-03-06T15:30:26.171Z,10.18
2023-03-06T15:33:24.755Z,10.63
2023-03-06T15:35:56.901Z,8.35
2023-03-06T15:38:35.156Z,8.73
2023-03-06T15:41:03.391Z,9.38
2023-03-06T15:43:36.345Z,8.43
2023-03-06T15:46:05.551Z,8.00
2023-03-06T15:48:33.900Z,7.90
2023-03-06T15:51:00.450Z,7.60
2023-03-06T15:53:26.972Z,8.63
2023-03-06T15:55:53.515Z,9.30
2023-03-06T15:58:23.783Z,9.02
2023-03-06T16:00:50.940Z,8.70
2023-03-06T16:03:18.269Z,8.57
2023-03-06T16:05:44.728Z,8.55
2023-03-06T16:08:14.672Z,9.10
2023-03-06T16:10:43.946Z,9.38
2023-03-06T16:13:26.951Z,9.85
2023-03-06T16:15:54.317Z,8.00
2023-03-06T16:18:20.911Z,9.15
2023-03-06T16:20:47.373Z,8.75
2023-03-06T16:23:15.299Z,10.80
2023-03-06T16:25:44.998Z,10.13
2023-03-06T16:28:14.618Z,8.33
2023-03-06T16:30:42.926Z,9.75
2023-03-06T16:33:13.281Z,9.50
2023-03-06T16:35:41.084Z,9.23
2023-03-06T16:38:07.625Z,8.60
2023-03-06T16:40:41.431Z,8.85
2023-03-06T16:43:09.676Z,9.60
2023-03-06T16:45:38.415Z,8.95
2023-03-06T16:48:06.093Z,9.75
2023-03-06T16:50:39.934Z,8.30
2023-03-06T16:53:07.674Z,9.70
2023-03-06T16:55:34.210Z,9.55
2023-03-06T16:58:00.656Z,9.90
2023-03-06T17:00:32.949Z,8.65
2023-03-06T17:03:00.874Z,8.50
2023-03-06T17:05:28.574Z,8.52
2023-03-06T17:07:55.679Z,7.53
2023-03-06T17:10:26.153Z,8.27
2023-03-06T17:12:53.343Z,8.57
2023-03-06T17:15:20.200Z,7.47
2023-03-06T17:17:46.858Z,8.02
2023-03-06T17:20:13.595Z,7.88
2023-03-06T17:22:41.453Z,8.35
2023-03-06T17:25:09.245Z,7.47
2023-03-06T17:27:36.650Z,6.82
2023-03-06T17:30:04.541Z,6.70
2023-03-06T17:32:32.286Z,7.63
2023-03-06T17:34:58.880Z,7.97
2023-03-06T17:37:25.361Z,8.38
2023-03-06T17:39:51.856Z,7.03
2023-03-06T17:42:18.240Z,7.70
2023-03-06T17:44:44.661Z,7.15
2023-03-06T17:47:11.369Z,7.35
2023-03-06T17:49:37.817Z,8.55
2023-03-06T17:52:05.636Z,8.38
2023-03-06T17:54:33.160Z,9.55
2023-03-06T17:57:03.197Z,9.23
2023-03-06T17:59:30.664Z,8.27
2023-03-06T18:01:58.212Z,8.50
2023-03-06T18:04:25.319Z,9.18
2023-03-06T18:06:51.721Z,8.07
2023-03-06T18:09:18.300Z,8.73
2023-03-06T18:11:44.853Z,9.05
2023-03-06T18:14:11.337Z,10.02
2023-03-06T18:16:38.174Z,9.90
2023-03-06T18:19:04.669Z,9.68
2023-03-06T18:21:31.052Z,10.38
2023-03-06T18:23:58.118Z,10.02
2023-03-06T18:26:26.840Z,9.20
2023-03-06T18:28:55.867Z,8.45
2023-03-06T18:31:25.682Z,10.10
2023-03-06T18:33:54.867Z,10.60
2023-03-06T18:36:23.338Z,9.85
2023-03-06T18:38:51.614Z,9.90
2023-03-06T18:41:19.951Z,9.95
2023-03-06T18:43:51.325Z,10.13
2023-03-06T18:48:44.094Z,9.18
2023-03-06T18:51:11.944Z,10.52
2023-03-06T18:53:39.962Z,9.35
2023-03-06T18:56:08.789Z,12.00
2023-03-06T18:58:35.586Z,11.43
2023-03-06T19:01:07.101Z,11.50
2023-03-06T19:03:34.041Z,11.57
2023-03-06T19:06:04.870Z,11.35
2023-03-06T19:08:31.420Z,11.43
2023-03-06T19:11:02.672Z,10.23
2023-03-06T19:13:29.508Z,10.35
2023-03-06T19:15:57.042Z,10.52
2023-03-06T19:18:24.841Z,10.98
2023-03-06T19:20:52.709Z,12.05
2023-03-06T19:23:21.115Z,10.23
2023-03-06T19:25:58.280Z,10.10
2023-03-06T19:28:25.201Z,10.40
2023-03-06T19:30:52.129Z,10.65
2023-03-06T19:33:19.697Z,11.32
2023-03-06T19:35:46.427Z,10.93
2023-03-06T19:38:13.657Z,10.80
2023-03-06T19:40:40.057Z,10.23
2023-03-06T19:43:06.623Z,10.35
2023-03-06T19:45:33.035Z,10.02
2023-03-06T19:48:00.865Z,10.98
2023-03-06T19:50:30.478Z,11.48
2023-03-06T19:52:57.500Z,10.05
2023-03-06T19:55:26.244Z,10.05
2023-03-06T19:57:53.128Z,10.10
2023-03-06T20:00:20.329Z,11.07
2023-03-06T20:02:46.901Z,10.13
2023-03-06T20:05:13.322Z,10.15
2023-03-06T20:07:39.707Z,10.13
2023-03-06T20:10:07.090Z,11.07
2023-03-06T20:12:33.861Z,11.65
2023-03-06T20:15:00.300Z,10.48
2023-03-06T20:17:26.697Z,11.07
2023-03-06T20:19:53.444Z,11.02
2023-03-06T20:22:19.890Z,10.43
2023-03-06T20:24:46.408Z,9.20
2023-03-06T20:27:12.979Z,10.57
2023-03-06T20:29:44.474Z,10.80
2023-03-06T20:32:12.253Z,9.52
2023-03-06T20:34:39.652Z,9.60
2023-03-06T20:37:07.422Z,8.82
2023-03-06T20:39:33.923Z,8.02
2023-03-06T20:42:00.750Z,8.85
2023-03-06T20:44:27.488Z,9.73
2023-03-06T20:46:55.112Z,10.13
2023-03-06T20:49:22.278Z,10.50
2023-03-06T20:51:49.848Z,9.18
2023-03-06T20:54:17.202Z,10.02
2023-03-06T20:56:47.938Z,9.70
2023-03-06T20:59:14.972Z,9.68
2023-03-06T21:01:44.212Z,9.60
2023-03-06T21:04:13.803Z,9.45
2023-03-06T21:06:43.929Z,9.43
2023-03-06T21:09:11.248Z,9.90
2023-03-06T21:11:37.664Z,9.68
2023-03-06T21:14:04.113Z,9.98
2023-03-06T21:16:30.813Z,10.15
2023-03-06T21:18:59.575Z,10.70
2023-03-06T21:21:29.618Z,8.82
2023-03-06T21:23:56.114Z,9.65
2023-03-06T21:26:25.305Z,9.20
2023-03-06T21:28:51.970Z,9.68
2023-03-06T21:31:20.554Z,10.93
2023-03-06T21:33:48.685Z,9.73
2023-03-06T21:36:15.773Z,9.40
2023-03-06T21:38:42.374Z,10.80
2023-03-06T21:41:12.594Z,10.93
2023-03-06T21:43:39.506Z,10.80
2023-03-06T21:46:06.590Z,10.75
2023-03-06T21:48:33.165Z,9.10
2023-03-06T21:51:13.294Z,9.68
2023-03-06T21:53:42.450Z,9.40
2023-03-06T21:56:10.537Z,10.07
2023-03-06T21:58:37.282Z,9.80
2023-03-06T22:01:09.728Z,10.05
2023-03-06T22:03:36.198Z,10.65
2023-03-06T22:06:11.120Z,9.75
2023-03-06T22:08:37.901Z,9.82
2023-03-06T22:11:14.264Z,9.23
2023-03-06T22:13:41.276Z,10.52
2023-03-06T22:16:09.033Z,8.88
2023-03-06T22:18:35.987Z,10.38
2023-03-06T22:21:10.445Z,9.48
2023-03-06T22:23:37.031Z,10.00
2023-03-06T22:26:09.428Z,9.27
2023-03-06T22:28:35.842Z,10.30
2023-03-06T22:31:06.723Z,10.65
2023-03-06T22:33:33.195Z,10.18
2023-03-06T22:36:06.180Z,9.18
2023-03-06T22:38:34.278Z,8.88
2023-03-06T22:41:00.905Z,8.93
2023-03-06T22:43:27.632Z,8.95
2023-03-06T22:45:54.096Z,9.13
2023-03-06T22:48:21.186Z,9.25
2023-03-06T22:50:47.637Z,10.05
2023-03-06T22:53:14.112Z,9.60
2023-03-06T22:55:40.504Z,9.13
2023-03-06T22:58:07.095Z,8.57
2023-03-06T23:00:33.524Z,8.45
2023-03-06T23:02:59.981Z,8.20
2023-03-06T23:05:29.161Z,9.07
2023-03-06T23:07:55.956Z,8.68
2023-03-06T23:10:22.384Z,9.40
2023-03-06T23:13:07.252Z,8.45
2023-03-06T23:15:52.073Z,8.45
2023-03-06T23:18:38.545Z,8.82
2023-03-06T23:21:23.575Z,8.13
2023-03-06T23:24:08.315Z,8.68
2023-03-06T23:26:34.966Z,8.57
2023-03-06T23:29:04.163Z,8.70
2023-03-06T23:31:31.490Z,8.60
2023-03-06T23:34:00.624Z,8.35
2023-03-06T23:36:27.822Z,9.70
2023-03-06T23:38:54.496Z,8.93
2023-03-06T23:41:22.626Z,8.50
2023-03-06T23:43:49.904Z,9.25
2023-03-06T23:46:17.166Z,9.10
2023-03-06T23:48:44.223Z,8.68
2023-03-06T23:51:28.626Z,8.52
2023-03-06T23:53:57.942Z,9.32
2023-03-06T23:56:25.882Z,8.98
2023-03-06T23:58:52.777Z,8.73
